sensor_id;sensor_type;location;lat;lon;timestamp;P1;durP1;ratioP1;P2;durP2;ratioP2
6095;SDS011;25081;42.698;23.298;2022-07-29T00:01:00;10.40;;;7.90;;
6095;SDS011;25081;42.698;23.298;2022-07-29T00:03:11;9.93;;;6.73;;
6095;SDS011;25081;42.698;23.298;2022-07-29T00:05:21;10.53;;;7.73;;
6095;SDS011;25081;42.698;23.298;2022-07-29T00:07:32;9.50;;;6.87;;
6095;SDS011;25081;42.698;23.298;2022-07-29T00:09:43;16.10;;;7.47;;
6095;SDS011;25081;42.698;23.298;2022-07-29T00:11:54;7.80;;;6.30;;
6095;SDS011;25081;42.698;23.298;2022-07-29T00:14:05;11.60;;;7.77;;
6095;SDS011;25081;42.698;23.298;2022-07-29T00:16:15;8.27;;;6.67;;
6095;SDS011;25081;42.698;23.298;2022-07-29T00:18:26;9.90;;;7.87;;
6095;SDS011;25081;42.698;23.298;2022-07-29T00:20:37;12.33;;;7.67;;
6095;SDS011;25081;42.698;23.298;2022-07-29T00:22:48;13.60;;;8.30;;
6095;SDS011;25081;42.698;23.298;2022-07-29T00:24:58;8.67;;;7.10;;
6095;SDS011;25081;42.698;23.298;2022-07-29T00:27:09;11.03;;;7.10;;
6095;SDS011;25081;42.698;23.298;2022-07-29T00:29:20;9.83;;;7.57;;
6095;SDS011;25081;42.698;23.298;2022-07-29T00:31:30;9.30;;;6.80;;
6095;SDS011;25081;42.698;23.298;2022-07-29T00:33:41;10.37;;;7.23;;
6095;SDS011;25081;42.698;23.298;2022-07-29T00:35:52;11.37;;;7.40;;
6095;SDS011;25081;42.698;23.298;2022-07-29T00:38:02;8.37;;;7.47;;
6095;SDS011;25081;42.698;23.298;2022-07-29T00:40:13;10.90;;;7.60;;
6095;SDS011;25081;42.698;23.298;2022-07-29T00:42:23;9.63;;;7.70;;
6095;SDS011;25081;42.698;23.298;2022-07-29T00:44:37;11.83;;;7.70;;
6095;SDS011;25081;42.698;23.298;2022-07-29T00:46:47;11.93;;;8.80;;
6095;SDS011;25081;42.698;23.298;2022-07-29T00:48:58;10.27;;;7.80;;
6095;SDS011;25081;42.698;23.298;2022-07-29T00:51:09;12.70;;;8.43;;
6095;SDS011;25081;42.698;23.298;2022-07-29T00:53:20;10.23;;;8.33;;
6095;SDS011;25081;42.698;23.298;2022-07-29T00:55:31;11.20;;;8.67;;
6095;SDS011;25081;42.698;23.298;2022-07-29T00:57:41;12.27;;;9.23;;
6095;SDS011;25081;42.698;23.298;2022-07-29T00:59:52;15.20;;;9.30;;
6095;SDS011;25081;42.698;23.298;2022-07-29T01:02:03;12.80;;;9.13;;
6095;SDS011;25081;42.698;23.298;2022-07-29T01:04:13;11.30;;;8.23;;
6095;SDS011;25081;42.698;23.298;2022-07-29T01:06:24;13.00;;;8.90;;
6095;SDS011;25081;42.698;23.298;2022-07-29T01:08:35;12.70;;;8.30;;
6095;SDS011;25081;42.698;23.298;2022-07-29T01:10:45;12.63;;;8.87;;
6095;SDS011;25081;42.698;23.298;2022-07-29T01:12:57;12.20;;;8.43;;
6095;SDS011;25081;42.698;23.298;2022-07-29T01:15:08;11.63;;;8.93;;
6095;SDS011;25081;42.698;23.298;2022-07-29T01:17:20;13.20;;;9.73;;
6095;SDS011;25081;42.698;23.298;2022-07-29T01:19:38;11.07;;;8.30;;
6095;SDS011;25081;42.698;23.298;2022-07-29T01:21:51;12.53;;;9.50;;
6095;SDS011;25081;42.698;23.298;2022-07-29T01:24:23;10.53;;;7.73;;
6095;SDS011;25081;42.698;23.298;2022-07-29T01:26:40;13.13;;;9.40;;
6095;SDS011;25081;42.698;23.298;2022-07-29T01:31:42;12.10;;;8.00;;
6095;SDS011;25081;42.698;23.298;2022-07-29T01:33:58;11.47;;;8.23;;
6095;SDS011;25081;42.698;23.298;2022-07-29T01:36:04;16.10;;;8.50;;
6095;SDS011;25081;42.698;23.298;2022-07-29T01:38:15;11.53;;;9.43;;
6095;SDS011;25081;42.698;23.298;2022-07-29T01:40:26;11.63;;;9.20;;
6095;SDS011;25081;42.698;23.298;2022-07-29T01:42:36;14.47;;;9.13;;
6095;SDS011;25081;42.698;23.298;2022-07-29T01:44:48;16.70;;;9.53;;
6095;SDS011;25081;42.698;23.298;2022-07-29T01:46:58;12.40;;;9.23;;
6095;SDS011;25081;42.698;23.298;2022-07-29T01:49:10;13.10;;;9.10;;
6095;SDS011;25081;42.698;23.298;2022-07-29T01:51:20;23.83;;;9.60;;
6095;SDS011;25081;42.698;23.298;2022-07-29T01:53:31;13.80;;;9.33;;
6095;SDS011;25081;42.698;23.298;2022-07-29T01:55:43;12.60;;;9.80;;
6095;SDS011;25081;42.698;23.298;2022-07-29T01:57:53;15.50;;;10.40;;
6095;SDS011;25081;42.698;23.298;2022-07-29T02:00:04;14.43;;;10.47;;
6095;SDS011;25081;42.698;23.298;2022-07-29T02:02:16;13.80;;;9.80;;
6095;SDS011;25081;42.698;23.298;2022-07-29T02:04:26;11.33;;;9.23;;
6095;SDS011;25081;42.698;23.298;2022-07-29T02:06:38;12.07;;;8.57;;
6095;SDS011;25081;42.698;23.298;2022-07-29T02:08:48;12.20;;;9.27;;
6095;SDS011;25081;42.698;23.298;2022-07-29T02:10:58;15.00;;;10.30;;
6095;SDS011;25081;42.698;23.298;2022-07-29T02:13:17;13.57;;;9.20;;
6095;SDS011;25081;42.698;23.298;2022-07-29T02:15:29;13.07;;;9.57;;
6095;SDS011;25081;42.698;23.298;2022-07-29T02:17:41;14.83;;;9.63;;
6095;SDS011;25081;42.698;23.298;2022-07-29T02:19:51;14.40;;;9.13;;
6095;SDS011;25081;42.698;23.298;2022-07-29T02:22:01;12.60;;;8.53;;
6095;SDS011;25081;42.698;23.298;2022-07-29T02:24:12;12.63;;;7.50;;
6095;SDS011;25081;42.698;23.298;2022-07-29T02:26:23;11.13;;;7.70;;
6095;SDS011;25081;42.698;23.298;2022-07-29T02:28:33;11.13;;;9.00;;
6095;SDS011;25081;42.698;23.298;2022-07-29T02:30:44;20.77;;;10.40;;
6095;SDS011;25081;42.698;23.298;2022-07-29T02:32:55;15.00;;;9.63;;
6095;SDS011;25081;42.698;23.298;2022-07-29T02:35:07;13.87;;;8.90;;
6095;SDS011;25081;42.698;23.298;2022-07-29T02:37:18;10.83;;;8.47;;
6095;SDS011;25081;42.698;23.298;2022-07-29T02:39:28;10.50;;;8.10;;
6095;SDS011;25081;42.698;23.298;2022-07-29T02:41:41;12.40;;;8.63;;
6095;SDS011;25081;42.698;23.298;2022-07-29T02:43:53;10.83;;;8.13;;
6095;SDS011;25081;42.698;23.298;2022-07-29T02:46:03;12.50;;;7.97;;
6095;SDS011;25081;42.698;23.298;2022-07-29T02:48:14;14.07;;;8.90;;
6095;SDS011;25081;42.698;23.298;2022-07-29T02:50:26;11.93;;;7.90;;
6095;SDS011;25081;42.698;23.298;2022-07-29T02:52:37;12.40;;;8.20;;
6095;SDS011;25081;42.698;23.298;2022-07-29T02:54:49;11.73;;;7.83;;
6095;SDS011;25081;42.698;23.298;2022-07-29T02:57:01;12.90;;;8.37;;
6095;SDS011;25081;42.698;23.298;2022-07-29T02:59:10;15.33;;;9.27;;
6095;SDS011;25081;42.698;23.298;2022-07-29T03:01:21;15.03;;;10.10;;
6095;SDS011;25081;42.698;23.298;2022-07-29T03:03:31;13.03;;;8.67;;
6095;SDS011;25081;42.698;23.298;2022-07-29T03:05:42;14.30;;;10.37;;
6095;SDS011;25081;42.698;23.298;2022-07-29T03:07:55;13.07;;;9.90;;
6095;SDS011;25081;42.698;23.298;2022-07-29T03:10:05;14.47;;;9.43;;
6095;SDS011;25081;42.698;23.298;2022-07-29T03:12:16;19.20;;;11.90;;
6095;SDS011;25081;42.698;23.298;2022-07-29T03:14:27;17.20;;;11.37;;
6095;SDS011;25081;42.698;23.298;2022-07-29T03:16:37;16.70;;;11.17;;
6095;SDS011;25081;42.698;23.298;2022-07-29T03:18:48;16.20;;;11.30;;
6095;SDS011;25081;42.698;23.298;2022-07-29T03:20:59;14.07;;;10.20;;
6095;SDS011;25081;42.698;23.298;2022-07-29T03:23:10;11.93;;;9.03;;
6095;SDS011;25081;42.698;23.298;2022-07-29T03:25:20;19.10;;;9.97;;
6095;SDS011;25081;42.698;23.298;2022-07-29T03:27:31;11.67;;;9.37;;
6095;SDS011;25081;42.698;23.298;2022-07-29T03:29:42;12.40;;;9.40;;
6095;SDS011;25081;42.698;23.298;2022-07-29T03:31:53;16.10;;;10.57;;
6095;SDS011;25081;42.698;23.298;2022-07-29T03:34:03;13.40;;;10.40;;
6095;SDS011;25081;42.698;23.298;2022-07-29T03:36:14;17.67;;;10.03;;
6095;SDS011;25081;42.698;23.298;2022-07-29T03:38:25;14.17;;;10.30;;
6095;SDS011;25081;42.698;23.298;2022-07-29T03:40:38;14.50;;;9.80;;
6095;SDS011;25081;42.698;23.298;2022-07-29T03:42:47;20.30;;;11.50;;
6095;SDS011;25081;42.698;23.298;2022-07-29T03:44:58;11.30;;;9.33;;
6095;SDS011;25081;42.698;23.298;2022-07-29T03:47:08;14.47;;;9.90;;
6095;SDS011;25081;42.698;23.298;2022-07-29T03:49:19;17.43;;;10.10;;
6095;SDS011;25081;42.698;23.298;2022-07-29T03:51:30;15.40;;;10.40;;
6095;SDS011;25081;42.698;23.298;2022-07-29T03:53:41;17.10;;;10.43;;
6095;SDS011;25081;42.698;23.298;2022-07-29T03:55:52;15.60;;;10.40;;
6095;SDS011;25081;42.698;23.298;2022-07-29T03:58:02;14.13;;;9.07;;
6095;SDS011;25081;42.698;23.298;2022-07-29T04:00:13;15.40;;;10.20;;
6095;SDS011;25081;42.698;23.298;2022-07-29T04:02:24;20.77;;;11.50;;
6095;SDS011;25081;42.698;23.298;2022-07-29T04:04:35;13.37;;;10.00;;
6095;SDS011;25081;42.698;23.298;2022-07-29T04:06:45;16.33;;;11.00;;
6095;SDS011;25081;42.698;23.298;2022-07-29T04:08:56;12.87;;;10.20;;
6095;SDS011;25081;42.698;23.298;2022-07-29T04:11:06;13.90;;;10.07;;
6095;SDS011;25081;42.698;23.298;2022-07-29T04:13:17;18.53;;;10.47;;
6095;SDS011;25081;42.698;23.298;2022-07-29T04:15:28;20.57;;;10.63;;
6095;SDS011;25081;42.698;23.298;2022-07-29T04:17:39;15.33;;;10.57;;
6095;SDS011;25081;42.698;23.298;2022-07-29T04:19:49;16.30;;;11.37;;
6095;SDS011;25081;42.698;23.298;2022-07-29T04:22:00;15.00;;;10.00;;
6095;SDS011;25081;42.698;23.298;2022-07-29T04:24:10;15.30;;;10.43;;
6095;SDS011;25081;42.698;23.298;2022-07-29T04:26:21;17.17;;;11.27;;
6095;SDS011;25081;42.698;23.298;2022-07-29T04:28:32;15.37;;;10.83;;
6095;SDS011;25081;42.698;23.298;2022-07-29T04:30:43;19.00;;;12.57;;
6095;SDS011;25081;42.698;23.298;2022-07-29T04:32:54;17.07;;;11.90;;
6095;SDS011;25081;42.698;23.298;2022-07-29T04:35:05;14.33;;;10.50;;
6095;SDS011;25081;42.698;23.298;2022-07-29T04:37:16;15.53;;;9.93;;
6095;SDS011;25081;42.698;23.298;2022-07-29T04:39:27;15.70;;;10.90;;
6095;SDS011;25081;42.698;23.298;2022-07-29T04:41:38;17.20;;;11.30;;
6095;SDS011;25081;42.698;23.298;2022-07-29T04:43:49;12.37;;;10.10;;
6095;SDS011;25081;42.698;23.298;2022-07-29T04:45:59;15.00;;;10.20;;
6095;SDS011;25081;42.698;23.298;2022-07-29T04:48:10;10.80;;;9.10;;
6095;SDS011;25081;42.698;23.298;2022-07-29T04:50:21;11.40;;;8.30;;
6095;SDS011;25081;42.698;23.298;2022-07-29T04:52:32;14.67;;;10.27;;
6095;SDS011;25081;42.698;23.298;2022-07-29T04:54:42;11.20;;;8.80;;
6095;SDS011;25081;42.698;23.298;2022-07-29T04:56:53;11.00;;;8.67;;
6095;SDS011;25081;42.698;23.298;2022-07-29T04:59:04;13.40;;;8.60;;
6095;SDS011;25081;42.698;23.298;2022-07-29T05:01:14;11.60;;;8.40;;
6095;SDS011;25081;42.698;23.298;2022-07-29T05:03:25;11.60;;;9.20;;
6095;SDS011;25081;42.698;23.298;2022-07-29T05:05:36;16.07;;;10.40;;
6095;SDS011;25081;42.698;23.298;2022-07-29T05:07:46;20.43;;;9.30;;
6095;SDS011;25081;42.698;23.298;2022-07-29T05:09:57;10.77;;;8.77;;
6095;SDS011;25081;42.698;23.298;2022-07-29T05:12:09;11.90;;;8.60;;
6095;SDS011;25081;42.698;23.298;2022-07-29T05:14:19;11.17;;;8.50;;
6095;SDS011;25081;42.698;23.298;2022-07-29T05:16:30;11.77;;;9.43;;
6095;SDS011;25081;42.698;23.298;2022-07-29T05:18:41;9.43;;;7.70;;
6095;SDS011;25081;42.698;23.298;2022-07-29T05:20:52;9.10;;;7.43;;
6095;SDS011;25081;42.698;23.298;2022-07-29T05:23:02;11.53;;;8.60;;
6095;SDS011;25081;42.698;23.298;2022-07-29T05:25:13;13.73;;;8.03;;
6095;SDS011;25081;42.698;23.298;2022-07-29T05:27:24;8.40;;;6.90;;
6095;SDS011;25081;42.698;23.298;2022-07-29T05:29:35;10.50;;;6.90;;
6095;SDS011;25081;42.698;23.298;2022-07-29T05:31:46;11.10;;;6.37;;
6095;SDS011;25081;42.698;23.298;2022-07-29T05:33:56;5.90;;;5.30;;
6095;SDS011;25081;42.698;23.298;2022-07-29T05:36:07;10.33;;;6.17;;
6095;SDS011;25081;42.698;23.298;2022-07-29T05:38:18;7.10;;;5.77;;
6095;SDS011;25081;42.698;23.298;2022-07-29T05:40:28;6.40;;;5.47;;
6095;SDS011;25081;42.698;23.298;2022-07-29T05:42:39;6.50;;;5.57;;
6095;SDS011;25081;42.698;23.298;2022-07-29T05:44:49;8.03;;;5.67;;
6095;SDS011;25081;42.698;23.298;2022-07-29T05:47:00;5.83;;;4.87;;
6095;SDS011;25081;42.698;23.298;2022-07-29T05:49:11;6.90;;;5.30;;
6095;SDS011;25081;42.698;23.298;2022-07-29T05:51:21;8.40;;;6.10;;
6095;SDS011;25081;42.698;23.298;2022-07-29T05:53:32;6.10;;;5.50;;
6095;SDS011;25081;42.698;23.298;2022-07-29T05:55:42;7.40;;;5.30;;
6095;SDS011;25081;42.698;23.298;2022-07-29T05:57:53;6.13;;;5.40;;
6095;SDS011;25081;42.698;23.298;2022-07-29T06:00:05;7.17;;;5.80;;
6095;SDS011;25081;42.698;23.298;2022-07-29T06:02:17;6.97;;;5.70;;
6095;SDS011;25081;42.698;23.298;2022-07-29T06:04:27;7.20;;;5.37;;
6095;SDS011;25081;42.698;23.298;2022-07-29T06:06:38;5.37;;;4.87;;
6095;SDS011;25081;42.698;23.298;2022-07-29T06:08:48;7.67;;;4.63;;
6095;SDS011;25081;42.698;23.298;2022-07-29T06:10:59;7.13;;;5.30;;
6095;SDS011;25081;42.698;23.298;2022-07-29T06:13:10;5.80;;;5.20;;
6095;SDS011;25081;42.698;23.298;2022-07-29T06:15:20;8.20;;;4.70;;
6095;SDS011;25081;42.698;23.298;2022-07-29T06:17:31;6.90;;;4.93;;
6095;SDS011;25081;42.698;23.298;2022-07-29T06:19:42;5.43;;;4.93;;
6095;SDS011;25081;42.698;23.298;2022-07-29T06:21:52;5.70;;;4.87;;
6095;SDS011;25081;42.698;23.298;2022-07-29T06:24:03;6.53;;;5.10;;
6095;SDS011;25081;42.698;23.298;2022-07-29T06:26:15;8.23;;;4.80;;
6095;SDS011;25081;42.698;23.298;2022-07-29T06:28:26;5.73;;;4.53;;
6095;SDS011;25081;42.698;23.298;2022-07-29T06:30:37;7.53;;;5.20;;
6095;SDS011;25081;42.698;23.298;2022-07-29T06:32:47;4.77;;;3.93;;
6095;SDS011;25081;42.698;23.298;2022-07-29T06:34:58;4.97;;;4.03;;
6095;SDS011;25081;42.698;23.298;2022-07-29T06:37:09;6.17;;;5.17;;
6095;SDS011;25081;42.698;23.298;2022-07-29T06:39:19;7.10;;;4.50;;
6095;SDS011;25081;42.698;23.298;2022-07-29T06:41:30;6.83;;;4.60;;
6095;SDS011;25081;42.698;23.298;2022-07-29T06:43:41;5.37;;;4.70;;
6095;SDS011;25081;42.698;23.298;2022-07-29T06:45:51;6.00;;;4.50;;
6095;SDS011;25081;42.698;23.298;2022-07-29T06:48:02;5.87;;;4.70;;
6095;SDS011;25081;42.698;23.298;2022-07-29T06:50:14;6.97;;;4.20;;
6095;SDS011;25081;42.698;23.298;2022-07-29T06:52:25;7.93;;;4.70;;
6095;SDS011;25081;42.698;23.298;2022-07-29T06:54:35;5.33;;;4.53;;
6095;SDS011;25081;42.698;23.298;2022-07-29T06:56:46;5.70;;;4.27;;
6095;SDS011;25081;42.698;23.298;2022-07-29T06:58:57;6.20;;;4.93;;
6095;SDS011;25081;42.698;23.298;2022-07-29T07:01:07;7.77;;;3.77;;
6095;SDS011;25081;42.698;23.298;2022-07-29T07:03:18;6.47;;;4.67;;
6095;SDS011;25081;42.698;23.298;2022-07-29T07:05:37;5.30;;;4.33;;
6095;SDS011;25081;42.698;23.298;2022-07-29T07:07:47;5.30;;;4.07;;
6095;SDS011;25081;42.698;23.298;2022-07-29T07:09:58;6.10;;;4.00;;
6095;SDS011;25081;42.698;23.298;2022-07-29T07:12:09;4.63;;;4.13;;
6095;SDS011;25081;42.698;23.298;2022-07-29T07:14:19;4.43;;;4.00;;
6095;SDS011;25081;42.698;23.298;2022-07-29T07:16:30;5.93;;;4.70;;
6095;SDS011;25081;42.698;23.298;2022-07-29T07:18:40;5.73;;;4.10;;
6095;SDS011;25081;42.698;23.298;2022-07-29T07:20:51;5.90;;;4.50;;
6095;SDS011;25081;42.698;23.298;2022-07-29T07:23:02;5.30;;;4.40;;
6095;SDS011;25081;42.698;23.298;2022-07-29T07:25:12;5.73;;;4.50;;
6095;SDS011;25081;42.698;23.298;2022-07-29T07:27:23;5.17;;;4.20;;
6095;SDS011;25081;42.698;23.298;2022-07-29T07:29:34;4.50;;;4.10;;
6095;SDS011;25081;42.698;23.298;2022-07-29T07:31:45;5.73;;;4.37;;
6095;SDS011;25081;42.698;23.298;2022-07-29T07:33:55;4.97;;;4.07;;
6095;SDS011;25081;42.698;23.298;2022-07-29T07:36:06;5.27;;;4.13;;
6095;SDS011;25081;42.698;23.298;2022-07-29T07:38:17;7.37;;;3.73;;
6095;SDS011;25081;42.698;23.298;2022-07-29T07:40:27;3.90;;;3.50;;
6095;SDS011;25081;42.698;23.298;2022-07-29T07:42:38;5.23;;;3.87;;
6095;SDS011;25081;42.698;23.298;2022-07-29T07:44:49;7.90;;;4.00;;
6095;SDS011;25081;42.698;23.298;2022-07-29T07:47:00;4.17;;;3.67;;
6095;SDS011;25081;42.698;23.298;2022-07-29T07:49:10;4.73;;;3.93;;
6095;SDS011;25081;42.698;23.298;2022-07-29T07:51:21;3.90;;;3.23;;
6095;SDS011;25081;42.698;23.298;2022-07-29T07:53:31;4.10;;;3.70;;
6095;SDS011;25081;42.698;23.298;2022-07-29T07:55:42;4.77;;;3.60;;
6095;SDS011;25081;42.698;23.298;2022-07-29T07:57:53;4.23;;;3.77;;
6095;SDS011;25081;42.698;23.298;2022-07-29T08:00:04;5.50;;;4.63;;
6095;SDS011;25081;42.698;23.298;2022-07-29T08:02:16;6.07;;;3.90;;
6095;SDS011;25081;42.698;23.298;2022-07-29T08:04:27;6.77;;;4.20;;
6095;SDS011;25081;42.698;23.298;2022-07-29T08:06:37;5.27;;;4.03;;
6095;SDS011;25081;42.698;23.298;2022-07-29T08:08:48;4.80;;;3.93;;
6095;SDS011;25081;42.698;23.298;2022-07-29T08:10:59;6.20;;;4.43;;
6095;SDS011;25081;42.698;23.298;2022-07-29T08:13:10;5.10;;;3.77;;
6095;SDS011;25081;42.698;23.298;2022-07-29T08:15:20;5.87;;;3.70;;
6095;SDS011;25081;42.698;23.298;2022-07-29T08:17:31;4.53;;;3.67;;
6095;SDS011;25081;42.698;23.298;2022-07-29T08:19:42;8.23;;;3.80;;
6095;SDS011;25081;42.698;23.298;2022-07-29T08:21:52;4.87;;;4.10;;
6095;SDS011;25081;42.698;23.298;2022-07-29T08:24:03;10.00;;;5.20;;
6095;SDS011;25081;42.698;23.298;2022-07-29T08:26:33;4.60;;;4.10;;
6095;SDS011;25081;42.698;23.298;2022-07-29T08:28:44;4.10;;;3.27;;
6095;SDS011;25081;42.698;23.298;2022-07-29T08:30:55;3.40;;;2.63;;
6095;SDS011;25081;42.698;23.298;2022-07-29T08:33:05;3.83;;;2.87;;
6095;SDS011;25081;42.698;23.298;2022-07-29T08:35:16;3.43;;;2.93;;
6095;SDS011;25081;42.698;23.298;2022-07-29T08:37:27;7.30;;;3.80;;
6095;SDS011;25081;42.698;23.298;2022-07-29T08:39:37;4.23;;;3.73;;
6095;SDS011;25081;42.698;23.298;2022-07-29T08:41:49;3.90;;;3.60;;
6095;SDS011;25081;42.698;23.298;2022-07-29T08:43:59;4.50;;;3.17;;
6095;SDS011;25081;42.698;23.298;2022-07-29T08:46:10;3.77;;;3.40;;
6095;SDS011;25081;42.698;23.298;2022-07-29T08:48:21;4.10;;;3.43;;
6095;SDS011;25081;42.698;23.298;2022-07-29T08:50:31;4.10;;;2.90;;
6095;SDS011;25081;42.698;23.298;2022-07-29T08:52:42;4.87;;;3.67;;
6095;SDS011;25081;42.698;23.298;2022-07-29T08:54:53;4.23;;;3.40;;
6095;SDS011;25081;42.698;23.298;2022-07-29T08:57:03;4.23;;;3.43;;
6095;SDS011;25081;42.698;23.298;2022-07-29T08:59:14;4.30;;;3.57;;
6095;SDS011;25081;42.698;23.298;2022-07-29T09:01:26;4.40;;;3.30;;
6095;SDS011;25081;42.698;23.298;2022-07-29T09:03:36;3.77;;;3.40;;
6095;SDS011;25081;42.698;23.298;2022-07-29T09:05:46;3.87;;;3.50;;
6095;SDS011;25081;42.698;23.298;2022-07-29T09:07:56;3.57;;;3.17;;
6095;SDS011;25081;42.698;23.298;2022-07-29T09:10:08;4.40;;;3.27;;
6095;SDS011;25081;42.698;23.298;2022-07-29T09:12:19;2.73;;;2.00;;
6095;SDS011;25081;42.698;23.298;2022-07-29T09:14:37;5.43;;;3.70;;
6095;SDS011;25081;42.698;23.298;2022-07-29T09:16:49;3.93;;;3.20;;
6095;SDS011;25081;42.698;23.298;2022-07-29T09:19:00;5.73;;;3.53;;
6095;SDS011;25081;42.698;23.298;2022-07-29T09:21:11;3.80;;;3.10;;
6095;SDS011;25081;42.698;23.298;2022-07-29T09:23:39;3.67;;;3.30;;
6095;SDS011;25081;42.698;23.298;2022-07-29T09:25:50;4.10;;;3.10;;
6095;SDS011;25081;42.698;23.298;2022-07-29T09:28:06;4.13;;;3.37;;
6095;SDS011;25081;42.698;23.298;2022-07-29T09:30:16;3.50;;;3.07;;
6095;SDS011;25081;42.698;23.298;2022-07-29T09:32:27;4.70;;;3.50;;
6095;SDS011;25081;42.698;23.298;2022-07-29T09:34:38;4.90;;;3.80;;
6095;SDS011;25081;42.698;23.298;2022-07-29T09:36:49;4.07;;;3.30;;
6095;SDS011;25081;42.698;23.298;2022-07-29T09:39:00;3.93;;;3.50;;
6095;SDS011;25081;42.698;23.298;2022-07-29T09:41:10;4.00;;;3.27;;
6095;SDS011;25081;42.698;23.298;2022-07-29T09:43:21;4.90;;;3.30;;
6095;SDS011;25081;42.698;23.298;2022-07-29T09:45:32;3.83;;;3.40;;
6095;SDS011;25081;42.698;23.298;2022-07-29T09:47:43;3.87;;;3.30;;
6095;SDS011;25081;42.698;23.298;2022-07-29T09:49:54;4.80;;;3.43;;
6095;SDS011;25081;42.698;23.298;2022-07-29T09:52:06;4.40;;;3.73;;
6095;SDS011;25081;42.698;23.298;2022-07-29T09:54:23;3.90;;;3.50;;
6095;SDS011;25081;42.698;23.298;2022-07-29T09:56:40;4.60;;;3.63;;
6095;SDS011;25081;42.698;23.298;2022-07-29T09:58:54;5.50;;;3.53;;
6095;SDS011;25081;42.698;23.298;2022-07-29T10:01:10;4.63;;;3.90;;
6095;SDS011;25081;42.698;23.298;2022-07-29T10:03:21;4.90;;;3.50;;
6095;SDS011;25081;42.698;23.298;2022-07-29T10:05:32;4.93;;;3.50;;
6095;SDS011;25081;42.698;23.298;2022-07-29T10:07:46;3.50;;;2.97;;
6095;SDS011;25081;42.698;23.298;2022-07-29T10:09:57;4.17;;;3.40;;
6095;SDS011;25081;42.698;23.298;2022-07-29T10:12:09;4.33;;;3.70;;
6095;SDS011;25081;42.698;23.298;2022-07-29T10:14:18;5.80;;;4.00;;
6095;SDS011;25081;42.698;23.298;2022-07-29T10:16:29;4.60;;;3.13;;
6095;SDS011;25081;42.698;23.298;2022-07-29T10:18:41;4.03;;;3.30;;
6095;SDS011;25081;42.698;23.298;2022-07-29T10:20:52;4.77;;;3.47;;
6095;SDS011;25081;42.698;23.298;2022-07-29T10:23:03;4.10;;;3.70;;
6095;SDS011;25081;42.698;23.298;2022-07-29T10:25:14;5.00;;;3.80;;
6095;SDS011;25081;42.698;23.298;2022-07-29T10:27:24;6.43;;;3.67;;
6095;SDS011;25081;42.698;23.298;2022-07-29T10:29:35;3.97;;;3.53;;
6095;SDS011;25081;42.698;23.298;2022-07-29T10:31:47;4.20;;;3.80;;
6095;SDS011;25081;42.698;23.298;2022-07-29T10:34:00;4.33;;;3.63;;
6095;SDS011;25081;42.698;23.298;2022-07-29T10:36:18;4.30;;;3.30;;
6095;SDS011;25081;42.698;23.298;2022-07-29T10:38:50;4.17;;;3.77;;
6095;SDS011;25081;42.698;23.298;2022-07-29T10:41:07;9.43;;;4.27;;
6095;SDS011;25081;42.698;23.298;2022-07-29T10:43:36;4.07;;;3.63;;
6095;SDS011;25081;42.698;23.298;2022-07-29T10:45:47;4.17;;;3.40;;
6095;SDS011;25081;42.698;23.298;2022-07-29T10:48:03;4.30;;;3.77;;
6095;SDS011;25081;42.698;23.298;2022-07-29T10:50:14;4.77;;;3.80;;
6095;SDS011;25081;42.698;23.298;2022-07-29T10:52:25;5.07;;;3.50;;
6095;SDS011;25081;42.698;23.298;2022-07-29T10:54:54;4.70;;;3.40;;
6095;SDS011;25081;42.698;23.298;2022-07-29T10:57:14;4.13;;;3.10;;
6095;SDS011;25081;42.698;23.298;2022-07-29T10:59:25;3.60;;;3.10;;
6095;SDS011;25081;42.698;23.298;2022-07-29T11:01:36;4.90;;;4.00;;
6095;SDS011;25081;42.698;23.298;2022-07-29T11:03:47;7.67;;;3.83;;
6095;SDS011;25081;42.698;23.298;2022-07-29T11:05:58;4.40;;;3.70;;
6095;SDS011;25081;42.698;23.298;2022-07-29T11:08:19;3.83;;;3.50;;
6095;SDS011;25081;42.698;23.298;2022-07-29T11:10:30;4.73;;;3.77;;
6095;SDS011;25081;42.698;23.298;2022-07-29T11:12:46;4.30;;;3.47;;
6095;SDS011;25081;42.698;23.298;2022-07-29T11:14:57;4.30;;;3.23;;
6095;SDS011;25081;42.698;23.298;2022-07-29T11:17:07;3.13;;;2.37;;
6095;SDS011;25081;42.698;23.298;2022-07-29T11:19:21;5.20;;;4.33;;
6095;SDS011;25081;42.698;23.298;2022-07-29T11:21:38;3.90;;;3.50;;
6095;SDS011;25081;42.698;23.298;2022-07-29T11:23:48;4.40;;;3.70;;
6095;SDS011;25081;42.698;23.298;2022-07-29T11:26:18;4.03;;;3.20;;
6095;SDS011;25081;42.698;23.298;2022-07-29T11:28:31;4.07;;;3.30;;
6095;SDS011;25081;42.698;23.298;2022-07-29T11:30:49;3.70;;;3.30;;
6095;SDS011;25081;42.698;23.298;2022-07-29T11:32:59;4.70;;;3.57;;
6095;SDS011;25081;42.698;23.298;2022-07-29T11:35:17;4.20;;;3.80;;
6095;SDS011;25081;42.698;23.298;2022-07-29T11:37:27;4.17;;;3.17;;
6095;SDS011;25081;42.698;23.298;2022-07-29T11:39:38;4.13;;;3.63;;
6095;SDS011;25081;42.698;23.298;2022-07-29T11:41:48;4.90;;;4.17;;
6095;SDS011;25081;42.698;23.298;2022-07-29T11:43:59;4.23;;;3.30;;
6095;SDS011;25081;42.698;23.298;2022-07-29T11:46:10;3.90;;;3.50;;
6095;SDS011;25081;42.698;23.298;2022-07-29T11:48:20;4.10;;;3.60;;
6095;SDS011;25081;42.698;23.298;2022-07-29T11:50:32;5.33;;;4.80;;
6095;SDS011;25081;42.698;23.298;2022-07-29T11:52:43;5.37;;;4.87;;
6095;SDS011;25081;42.698;23.298;2022-07-29T11:54:53;6.53;;;4.33;;
6095;SDS011;25081;42.698;23.298;2022-07-29T11:57:04;5.40;;;3.53;;
6095;SDS011;25081;42.698;23.298;2022-07-29T11:59:16;5.00;;;3.70;;
6095;SDS011;25081;42.698;23.298;2022-07-29T12:01:27;4.20;;;3.80;;
6095;SDS011;25081;42.698;23.298;2022-07-29T12:03:37;4.10;;;3.60;;
6095;SDS011;25081;42.698;23.298;2022-07-29T12:05:48;3.53;;;2.47;;
6095;SDS011;25081;42.698;23.298;2022-07-29T12:08:05;4.70;;;3.97;;
6095;SDS011;25081;42.698;23.298;2022-07-29T12:10:25;8.00;;;4.27;;
6095;SDS011;25081;42.698;23.298;2022-07-29T12:12:39;5.73;;;5.07;;
6095;SDS011;25081;42.698;23.298;2022-07-29T12:14:50;5.83;;;4.67;;
6095;SDS011;25081;42.698;23.298;2022-07-29T12:17:01;4.53;;;3.90;;
6095;SDS011;25081;42.698;23.298;2022-07-29T12:19:12;5.10;;;3.93;;
6095;SDS011;25081;42.698;23.298;2022-07-29T12:21:22;4.13;;;3.73;;
6095;SDS011;25081;42.698;23.298;2022-07-29T12:23:33;4.87;;;4.40;;
6095;SDS011;25081;42.698;23.298;2022-07-29T12:25:44;4.67;;;4.27;;
6095;SDS011;25081;42.698;23.298;2022-07-29T12:27:58;4.43;;;4.00;;
6095;SDS011;25081;42.698;23.298;2022-07-29T12:30:10;5.23;;;4.20;;
6095;SDS011;25081;42.698;23.298;2022-07-29T12:32:20;6.20;;;4.10;;
6095;SDS011;25081;42.698;23.298;2022-07-29T12:34:31;4.83;;;4.43;;
6095;SDS011;25081;42.698;23.298;2022-07-29T12:36:42;5.23;;;4.00;;
6095;SDS011;25081;42.698;23.298;2022-07-29T12:38:53;7.23;;;4.90;;
6095;SDS011;25081;42.698;23.298;2022-07-29T12:41:04;6.00;;;4.50;;
6095;SDS011;25081;42.698;23.298;2022-07-29T12:43:15;5.23;;;4.57;;
6095;SDS011;25081;42.698;23.298;2022-07-29T12:45:29;5.77;;;5.17;;
6095;SDS011;25081;42.698;23.298;2022-07-29T12:47:51;5.17;;;4.27;;
6095;SDS011;25081;42.698;23.298;2022-07-29T12:50:09;8.90;;;5.40;;
6095;SDS011;25081;42.698;23.298;2022-07-29T12:52:30;5.17;;;4.47;;
6095;SDS011;25081;42.698;23.298;2022-07-29T12:54:47;6.13;;;5.17;;
6095;SDS011;25081;42.698;23.298;2022-07-29T12:56:58;6.27;;;4.70;;
6095;SDS011;25081;42.698;23.298;2022-07-29T12:59:13;5.27;;;4.60;;
6095;SDS011;25081;42.698;23.298;2022-07-29T13:01:24;5.90;;;4.63;;
6095;SDS011;25081;42.698;23.298;2022-07-29T13:03:51;5.93;;;4.87;;
6095;SDS011;25081;42.698;23.298;2022-07-29T13:06:01;7.07;;;4.10;;
6095;SDS011;25081;42.698;23.298;2022-07-29T13:08:13;6.67;;;5.37;;
6095;SDS011;25081;42.698;23.298;2022-07-29T13:10:23;5.50;;;4.30;;